sensor_id;sensor_type;location;lat;lon;timestamp;pressure;altitude;pressure_sealevel;temperature;humidity
41800;BME280;27468;47.460;19.034;2022-08-21T00:01:48;99741.19;;;20.41;85.86
41800;BME280;27468;47.460;19.034;2022-08-21T00:04:14;99751.47;;;20.48;86.11
41800;BME280;27468;47.460;19.034;2022-08-21T00:06:40;99761.00;;;20.52;85.78
41800;BME280;27468;47.460;19.034;2022-08-21T00:09:08;99767.00;;;20.55;85.76
41800;BME280;27468;47.460;19.034;2022-08-21T00:11:35;99754.25;;;20.46;85.73
41800;BME280;27468;47.460;19.034;2022-08-21T00:14:01;99708.00;;;20.19;85.54
41800;BME280;27468;47.460;19.034;2022-08-21T00:16:27;99705.53;;;20.16;86.07
41800;BME280;27468;47.460;19.034;2022-08-21T00:18:52;99733.13;;;20.29;85.71
41800;BME280;27468;47.460;19.034;2022-08-21T00:21:18;99706.38;;;20.03;86.04
41800;BME280;27468;47.460;19.034;2022-08-21T00:23:43;99756.47;;;20.27;85.93
41800;BME280;27468;47.460;19.034;2022-08-21T00:26:09;99753.91;;;20.25;86.04
41800;BME280;27468;47.460;19.034;2022-08-21T00:28:34;99716.66;;;19.97;86.30
41800;BME280;27468;47.460;19.034;2022-08-21T00:31:00;99751.03;;;20.16;87.04
41800;BME280;27468;47.460;19.034;2022-08-21T00:33:29;99737.00;;;20.12;87.07
41800;BME280;27468;47.460;19.034;2022-08-21T00:35:54;99727.25;;;19.98;87.21
41800;BME280;27468;47.460;19.034;2022-08-21T00:38:20;99702.94;;;19.89;87.31
41800;BME280;27468;47.460;19.034;2022-08-21T00:40:49;99742.34;;;20.12;87.07
41800;BME280;27468;47.460;19.034;2022-08-21T00:43:21;99761.53;;;20.19;87.11
41800;BME280;27468;47.460;19.034;2022-08-21T00:45:47;99747.59;;;20.14;87.25
41800;BME280;27468;47.460;19.034;2022-08-21T00:48:13;99756.38;;;20.16;87.31
41800;BME280;27468;47.460;19.034;2022-08-21T00:50:44;99745.22;;;19.96;87.73
41800;BME280;27468;47.460;19.034;2022-08-21T00:53:12;99723.78;;;19.84;87.93
41800;BME280;27468;47.460;19.034;2022-08-21T00:55:38;99749.50;;;19.99;87.90
41800;BME280;27468;47.460;19.034;2022-08-21T00:58:07;99731.09;;;19.94;87.82
41800;BME280;27468;47.460;19.034;2022-08-21T01:00:37;99753.78;;;20.01;87.70
41800;BME280;27468;47.460;19.034;2022-08-21T01:03:08;99763.53;;;20.02;87.83
41800;BME280;27468;47.460;19.034;2022-08-21T01:05:34;99758.50;;;19.98;87.61
41800;BME280;27468;47.460;19.034;2022-08-21T01:08:00;99730.97;;;19.83;87.21
41800;BME280;27468;47.460;19.034;2022-08-21T01:10:26;99720.16;;;19.85;87.15
41800;BME280;27468;47.460;19.034;2022-08-21T01:12:52;99743.09;;;20.01;87.42
41800;BME280;27468;47.460;19.034;2022-08-21T01:15:21;99735.28;;;19.98;87.23
41800;BME280;27468;47.460;19.034;2022-08-21T01:17:49;99742.97;;;20.03;87.21
41800;BME280;27468;47.460;19.034;2022-08-21T01:20:14;99727.44;;;19.95;87.69
41800;BME280;27468;47.460;19.034;2022-08-21T01:22:41;99729.59;;;20.03;87.55
41800;BME280;27468;47.460;19.034;2022-08-21T01:25:08;99738.81;;;20.11;87.35
41800;BME280;27468;47.460;19.034;2022-08-21T01:27:34;99693.31;;;19.86;87.07
41800;BME280;27468;47.460;19.034;2022-08-21T01:30:22;99742.66;;;20.07;87.02
41800;BME280;27468;47.460;19.034;2022-08-21T01:32:49;99748.22;;;20.04;87.48
41800;BME280;27468;47.460;19.034;2022-08-21T01:35:17;99731.31;;;19.91;88.27
41800;BME280;27468;47.460;19.034;2022-08-21T01:37:43;99738.06;;;19.97;87.82
41800;BME280;27468;47.460;19.034;2022-08-21T01:40:10;99744.38;;;19.96;87.71
41800;BME280;27468;47.460;19.034;2022-08-21T01:42:36;99732.16;;;19.92;87.59
41800;BME280;27468;47.460;19.034;2022-08-21T01:45:03;99712.44;;;19.80;87.75
41800;BME280;27468;47.460;19.034;2022-08-21T01:47:29;99731.50;;;19.88;87.71
41800;BME280;27468;47.460;19.034;2022-08-21T01:49:54;99720.91;;;19.87;87.68
41800;BME280;27468;47.460;19.034;2022-08-21T01:52:20;99719.84;;;19.89;87.71
41800;BME280;27468;47.460;19.034;2022-08-21T01:54:46;99751.56;;;20.08;87.85
41800;BME280;27468;47.460;19.034;2022-08-21T01:57:13;99727.78;;;20.03;87.79
41800;BME280;27468;47.460;19.034;2022-08-21T01:59:39;99684.94;;;19.78;87.03
41800;BME280;27468;47.460;19.034;2022-08-21T02:02:06;99729.38;;;19.93;86.90
41800;BME280;27468;47.460;19.034;2022-08-21T02:04:32;99737.53;;;20.04;86.83
41800;BME280;27468;47.460;19.034;2022-08-21T02:06:59;99725.22;;;20.02;86.69
41800;BME280;27468;47.460;19.034;2022-08-21T02:09:25;99742.78;;;20.06;86.58
41800;BME280;27468;47.460;19.034;2022-08-21T02:11:51;99735.38;;;19.97;86.40
41800;BME280;27468;47.460;19.034;2022-08-21T02:14:17;99746.19;;;19.95;86.65
41800;BME280;27468;47.460;19.034;2022-08-21T02:16:43;99729.91;;;19.86;87.16
41800;BME280;27468;47.460;19.034;2022-08-21T02:19:10;99741.78;;;19.94;86.93
41800;BME280;27468;47.460;19.034;2022-08-21T02:21:36;99683.00;;;19.55;86.86
41800;BME280;27468;47.460;19.034;2022-08-21T02:24:03;99744.38;;;19.96;86.97
41800;BME280;27468;47.460;19.034;2022-08-21T02:26:28;99728.94;;;19.87;86.78
41800;BME280;27468;47.460;19.034;2022-08-21T02:28:54;99733.22;;;19.89;86.90
41800;BME280;27468;47.460;19.034;2022-08-21T02:31:20;99727.31;;;19.84;86.98
41800;BME280;27468;47.460;19.034;2022-08-21T02:33:45;99738.16;;;19.95;87.05
41800;BME280;27468;47.460;19.034;2022-08-21T02:36:11;99723.47;;;19.75;87.98
41800;BME280;27468;47.460;19.034;2022-08-21T02:38:38;99742.41;;;19.85;88.15
41800;BME280;27468;47.460;19.034;2022-08-21T02:41:06;99726.13;;;19.75;87.82
41800;BME280;27468;47.460;19.034;2022-08-21T02:43:33;99700.13;;;19.65;87.69
41800;BME280;27468;47.460;19.034;2022-08-21T02:45:58;99664.50;;;19.52;87.82
41800;BME280;27468;47.460;19.034;2022-08-21T02:48:27;99711.25;;;19.71;88.10
41800;BME280;27468;47.460;19.034;2022-08-21T02:50:56;99718.22;;;19.74;87.81
41800;BME280;27468;47.460;19.034;2022-08-21T02:53:22;99696.06;;;19.59;88.09
41800;BME280;27468;47.460;19.034;2022-08-21T02:55:49;99684.25;;;19.49;88.38
41800;BME280;27468;47.460;19.034;2022-08-21T02:58:17;99700.78;;;19.56;88.91
41800;BME280;27468;47.460;19.034;2022-08-21T03:00:43;99713.94;;;19.59;89.02
41800;BME280;27468;47.460;19.034;2022-08-21T03:03:09;99687.22;;;19.44;88.73
41800;BME280;27468;47.460;19.034;2022-08-21T03:05:37;99710.31;;;19.60;88.83
41800;BME280;27468;47.460;19.034;2022-08-21T03:08:05;99702.09;;;19.49;89.16
41800;BME280;27468;47.460;19.034;2022-08-21T03:10:35;99735.44;;;19.57;89.58
41800;BME280;27468;47.460;19.034;2022-08-21T03:13:01;99727.19;;;19.60;89.55
41800;BME280;27468;47.460;19.034;2022-08-21T03:15:29;99703.47;;;19.41;89.79
41800;BME280;27468;47.460;19.034;2022-08-21T03:17:55;99714.50;;;19.50;90.07
41800;BME280;27468;47.460;19.034;2022-08-21T03:20:23;99693.00;;;19.38;90.24
41800;BME280;27468;47.460;19.034;2022-08-21T03:22:49;99673.88;;;19.18;90.09
41800;BME280;27468;47.460;19.034;2022-08-21T03:25:15;99674.63;;;19.20;90.27
41800;BME280;27468;47.460;19.034;2022-08-21T03:27:41;99680.94;;;19.19;90.59
41800;BME280;27468;47.460;19.034;2022-08-21T03:30:09;99715.03;;;19.42;90.73
41800;BME280;27468;47.460;19.034;2022-08-21T03:32:35;99698.75;;;19.32;90.77
41800;BME280;27468;47.460;19.034;2022-08-21T03:35:02;99728.75;;;19.50;90.29
41800;BME280;27468;47.460;19.034;2022-08-21T03:37:28;99742.97;;;19.51;90.53
41800;BME280;27468;47.460;19.034;2022-08-21T03:39:54;99724.09;;;19.39;90.59
41800;BME280;27468;47.460;19.034;2022-08-21T03:42:19;99674.19;;;19.13;90.66
41800;BME280;27468;47.460;19.034;2022-08-21T03:44:45;99688.97;;;19.19;90.82
41800;BME280;27468;47.460;19.034;2022-08-21T03:47:10;99694.84;;;19.24;90.76
41800;BME280;27468;47.460;19.034;2022-08-21T03:49:36;99739.53;;;19.49;91.05
41800;BME280;27468;47.460;19.034;2022-08-21T03:52:02;99722.28;;;19.40;91.04
41800;BME280;27468;47.460;19.034;2022-08-21T03:54:28;99714.38;;;19.38;91.05
41800;BME280;27468;47.460;19.034;2022-08-21T03:56:53;99688.00;;;19.20;91.00
41800;BME280;27468;47.460;19.034;2022-08-21T03:59:19;99738.56;;;19.50;91.22
41800;BME280;27468;47.460;19.034;2022-08-21T04:01:56;99715.44;;;19.36;91.03
41800;BME280;27468;47.460;19.034;2022-08-21T04:04:23;99733.22;;;19.50;91.05
41800;BME280;27468;47.460;19.034;2022-08-21T04:06:48;99712.44;;;19.40;90.99
41800;BME280;27468;47.460;19.034;2022-08-21T04:09:15;99730.97;;;19.43;90.79
41800;BME280;27468;47.460;19.034;2022-08-21T04:11:41;99709.53;;;19.31;90.14
41800;BME280;27468;47.460;19.034;2022-08-21T04:14:06;99735.25;;;19.46;89.88
41800;BME280;27468;47.460;19.034;2022-08-21T04:16:32;99727.44;;;19.43;89.50
41800;BME280;27468;47.460;19.034;2022-08-21T04:18:57;99744.34;;;19.43;89.47
41800;BME280;27468;47.460;19.034;2022-08-21T04:21:23;99728.69;;;19.37;89.60
41800;BME280;27468;47.460;19.034;2022-08-21T04:23:49;99701.81;;;19.26;89.50
41800;BME280;27468;47.460;19.034;2022-08-21T04:26:14;99757.56;;;19.59;89.57
41800;BME280;27468;47.460;19.034;2022-08-21T04:28:41;99754.03;;;19.59;89.54
41800;BME280;27468;47.460;19.034;2022-08-21T04:31:06;99732.66;;;19.59;89.39
41800;BME280;27468;47.460;19.034;2022-08-21T04:33:32;99726.00;;;19.52;89.61
41800;BME280;27468;47.460;19.034;2022-08-21T04:35:58;99721.41;;;19.54;89.42
41800;BME280;27468;47.460;19.034;2022-08-21T04:38:23;99718.31;;;19.60;89.12
41800;BME280;27468;47.460;19.034;2022-08-21T04:40:49;99729.78;;;19.74;88.97
41800;BME280;27468;47.460;19.034;2022-08-21T04:43:15;99760.09;;;19.88;88.28
41800;BME280;27468;47.460;19.034;2022-08-21T04:45:46;99752.06;;;19.88;88.20
41800;BME280;27468;47.460;19.034;2022-08-21T04:48:15;99733.09;;;19.78;88.22
41800;BME280;27468;47.460;19.034;2022-08-21T04:50:52;99763.84;;;19.98;88.38
41800;BME280;27468;47.460;19.034;2022-08-21T04:56:19;99775.63;;;20.08;87.62
41800;BME280;27468;47.460;19.034;2022-08-21T04:58:46;99778.97;;;20.11;87.66
41800;BME280;27468;47.460;19.034;2022-08-21T05:01:16;99766.97;;;20.04;87.54
41800;BME280;27468;47.460;19.034;2022-08-21T05:03:42;99769.22;;;20.10;87.55
41800;BME280;27468;47.460;19.034;2022-08-21T05:06:10;99755.72;;;20.12;87.86
41800;BME280;27468;47.460;19.034;2022-08-21T05:08:39;99763.44;;;20.17;87.38
41800;BME280;27468;47.460;19.034;2022-08-21T05:11:06;99749.94;;;20.05;87.42
41800;BME280;27468;47.460;19.034;2022-08-21T05:13:32;99764.59;;;20.25;86.87
41800;BME280;27468;47.460;19.034;2022-08-21T05:15:58;99753.91;;;20.13;85.65
41800;BME280;27468;47.460;19.034;2022-08-21T05:18:24;99776.16;;;20.26;85.93
41800;BME280;27468;47.460;19.034;2022-08-21T05:20:49;99768.81;;;20.17;85.23
41800;BME280;27468;47.460;19.034;2022-08-21T05:23:16;99764.81;;;20.22;84.83
41800;BME280;27468;47.460;19.034;2022-08-21T05:25:41;99733.16;;;20.16;84.16
41800;BME280;27468;47.460;19.034;2022-08-21T05:28:09;99726.94;;;20.16;84.30
41800;BME280;27468;47.460;19.034;2022-08-21T05:30:36;99774.50;;;20.50;83.70
41800;BME280;27468;47.460;19.034;2022-08-21T05:33:03;99778.03;;;20.51;84.15
41800;BME280;27468;47.460;19.034;2022-08-21T05:35:30;99727.97;;;20.26;84.22
41800;BME280;27468;47.460;19.034;2022-08-21T05:37:56;99767.22;;;20.52;83.92
41800;BME280;27468;47.460;19.034;2022-08-21T05:40:22;99702.81;;;20.28;84.17
41800;BME280;27468;47.460;19.034;2022-08-21T05:42:52;99761.53;;;20.69;84.11
41800;BME280;27468;47.460;19.034;2022-08-21T05:45:18;99741.28;;;20.53;83.62
41800;BME280;27468;47.460;19.034;2022-08-21T05:47:43;99757.56;;;20.62;83.80
41800;BME280;27468;47.460;19.034;2022-08-21T05:50:09;99753.38;;;20.71;84.04
41800;BME280;27468;47.460;19.034;2022-08-21T05:52:34;99730.56;;;20.53;83.04
41800;BME280;27468;47.460;19.034;2022-08-21T05:55:00;99736.66;;;20.67;83.23
41800;BME280;27468;47.460;19.034;2022-08-21T05:57:25;99768.75;;;20.93;82.60
41800;BME280;27468;47.460;19.034;2022-08-21T05:59:51;99741.75;;;20.83;81.40
41800;BME280;27468;47.460;19.034;2022-08-21T06:02:18;99762.81;;;21.00;81.34
41800;BME280;27468;47.460;19.034;2022-08-21T06:04:44;99737.09;;;20.98;81.04
41800;BME280;27468;47.460;19.034;2022-08-21T06:07:09;99754.44;;;21.05;81.06
41800;BME280;27468;47.460;19.034;2022-08-21T06:09:36;99759.03;;;21.16;80.42
41800;BME280;27468;47.460;19.034;2022-08-21T06:12:08;99734.63;;;21.07;80.57
41800;BME280;27468;47.460;19.034;2022-08-21T06:14:34;99721.97;;;21.09;80.88
41800;BME280;27468;47.460;19.034;2022-08-21T06:17:06;99774.69;;;21.46;80.27
41800;BME280;27468;47.460;19.034;2022-08-21T06:19:33;99769.09;;;21.49;78.60
41800;BME280;27468;47.460;19.034;2022-08-21T06:21:59;99758.31;;;21.37;78.44
41800;BME280;27468;47.460;19.034;2022-08-21T06:24:24;99763.84;;;21.47;78.40
41800;BME280;27468;47.460;19.034;2022-08-21T06:26:50;99769.72;;;21.52;77.99
41800;BME280;27468;47.460;19.034;2022-08-21T06:29:15;99755.28;;;21.42;76.31
41800;BME280;27468;47.460;19.034;2022-08-21T06:31:43;99744.75;;;21.52;76.95
41800;BME280;27468;47.460;19.034;2022-08-21T06:34:09;99754.78;;;21.61;76.12
41800;BME280;27468;47.460;19.034;2022-08-21T06:36:34;99756.88;;;21.68;75.38
41800;BME280;27468;47.460;19.034;2022-08-21T06:39:00;99778.31;;;21.92;74.95
41800;BME280;27468;47.460;19.034;2022-08-21T06:41:26;99759.97;;;21.75;74.40
41800;BME280;27468;47.460;19.034;2022-08-21T06:43:52;99756.03;;;21.68;74.43
41800;BME280;27468;47.460;19.034;2022-08-21T06:46:17;99767.09;;;21.87;74.29
41800;BME280;27468;47.460;19.034;2022-08-21T06:48:43;99764.50;;;21.86;73.32
41800;BME280;27468;47.460;19.034;2022-08-21T06:51:08;99767.19;;;21.86;73.45
41800;BME280;27468;47.460;19.034;2022-08-21T06:53:34;99764.63;;;21.95;73.29
41800;BME280;27468;47.460;19.034;2022-08-21T06:55:59;99780.00;;;22.17;72.68
41800;BME280;27468;47.460;19.034;2022-08-21T06:58:25;99775.28;;;22.32;72.36
41800;BME280;27468;47.460;19.034;2022-08-21T07:00:50;99789.94;;;22.50;71.77
41800;BME280;27468;47.460;19.034;2022-08-21T07:03:45;99791.38;;;22.32;71.66
41800;BME280;27468;47.460;19.034;2022-08-21T07:06:11;99781.03;;;22.38;71.38
41800;BME280;27468;47.460;19.034;2022-08-21T07:08:37;99786.66;;;22.47;70.79
41800;BME280;27468;47.460;19.034;2022-08-21T07:11:05;99795.06;;;22.42;70.54
41800;BME280;27468;47.460;19.034;2022-08-21T07:13:32;99791.38;;;22.54;70.36
41800;BME280;27468;47.460;19.034;2022-08-21T07:15:57;99781.75;;;22.40;70.88
41800;BME280;27468;47.460;19.034;2022-08-21T07:18:23;99781.78;;;22.52;70.46
41800;BME280;27468;47.460;19.034;2022-08-21T07:20:48;99791.16;;;22.57;70.42
41800;BME280;27468;47.460;19.034;2022-08-21T07:23:36;99798.84;;;22.73;70.17
41800;BME280;27468;47.460;19.034;2022-08-21T07:26:03;99770.03;;;22.64;69.75
41800;BME280;27468;47.460;19.034;2022-08-21T07:28:29;99769.78;;;22.67;69.65
41800;BME280;27468;47.460;19.034;2022-08-21T07:30:57;99790.56;;;22.76;69.57
41800;BME280;27468;47.460;19.034;2022-08-21T07:33:24;99778.38;;;22.83;69.08
41800;BME280;27468;47.460;19.034;2022-08-21T07:35:50;99786.31;;;22.85;69.01
41800;BME280;27468;47.460;19.034;2022-08-21T07:38:16;99771.63;;;22.78;69.46
41800;BME280;27468;47.460;19.034;2022-08-21T07:40:41;99743.28;;;22.73;68.85
41800;BME280;27468;47.460;19.034;2022-08-21T07:43:07;99764.69;;;22.86;68.24
41800;BME280;27468;47.460;19.034;2022-08-21T07:45:33;99786.91;;;23.11;68.18
41800;BME280;27468;47.460;19.034;2022-08-21T07:47:58;99739.38;;;23.00;68.85
41800;BME280;27468;47.460;19.034;2022-08-21T07:50:24;99781.84;;;23.28;67.52
41800;BME280;27468;47.460;19.034;2022-08-21T07:52:50;99771.34;;;23.14;67.02
41800;BME280;27468;47.460;19.034;2022-08-21T07:55:18;99748.13;;;23.13;67.88
41800;BME280;27468;47.460;19.034;2022-08-21T07:57:45;99776.91;;;23.45;67.18
41800;BME280;27468;47.460;19.034;2022-08-21T08:00:14;99765.22;;;23.34;66.35
41800;BME280;27468;47.460;19.034;2022-08-21T08:02:40;99771.78;;;23.42;66.64
41800;BME280;27468;47.460;19.034;2022-08-21T08:05:08;99787.44;;;23.59;66.94
41800;BME280;27468;47.460;19.034;2022-08-21T08:07:34;99786.97;;;23.75;65.52
41800;BME280;27468;47.460;19.034;2022-08-21T08:10:00;99760.13;;;23.63;65.21
41800;BME280;27468;47.460;19.034;2022-08-21T08:12:26;99752.19;;;23.62;65.61
41800;BME280;27468;47.460;19.034;2022-08-21T08:14:58;99760.88;;;23.86;65.18
41800;BME280;27468;47.460;19.034;2022-08-21T08:17:24;99754.31;;;24.00;64.87
41800;BME280;27468;47.460;19.034;2022-08-21T08:19:49;99750.38;;;24.04;64.09
41800;BME280;27468;47.460;19.034;2022-08-21T08:22:16;99745.00;;;24.04;64.07
41800;BME280;27468;47.460;19.034;2022-08-21T08:24:45;99753.28;;;24.12;64.04
41800;BME280;27468;47.460;19.034;2022-08-21T08:27:10;99748.88;;;24.11;63.79
41800;BME280;27468;47.460;19.034;2022-08-21T08:29:36;99703.69;;;23.94;63.29
41800;BME280;27468;47.460;19.034;2022-08-21T08:32:02;99719.56;;;24.18;62.71
41800;BME280;27468;47.460;19.034;2022-08-21T08:34:28;99690.75;;;24.09;62.98
41800;BME280;27468;47.460;19.034;2022-08-21T08:36:53;99700.94;;;24.26;63.20
41800;BME280;27468;47.460;19.034;2022-08-21T08:39:19;99753.75;;;24.68;62.64
41800;BME280;27468;47.460;19.034;2022-08-21T08:41:47;99723.19;;;24.58;62.53
41800;BME280;27468;47.460;19.034;2022-08-21T08:44:13;99740.66;;;24.64;61.97
41800;BME280;27468;47.460;19.034;2022-08-21T08:46:43;99747.41;;;24.79;61.69
41800;BME280;27468;47.460;19.034;2022-08-21T08:51:47;99709.53;;;24.50;62.34
41800;BME280;27468;47.460;19.034;2022-08-21T08:54:39;99730.38;;;24.79;62.04
41800;BME280;27468;47.460;19.034;2022-08-21T08:57:11;99741.59;;;24.84;61.65
41800;BME280;27468;47.460;19.034;2022-08-21T08:59:46;99735.03;;;24.77;61.63
41800;BME280;27468;47.460;19.034;2022-08-21T09:02:15;99736.94;;;24.95;61.73
41800;BME280;27468;47.460;19.034;2022-08-21T09:04:42;99747.47;;;24.98;61.40
41800;BME280;27468;47.460;19.034;2022-08-21T09:07:31;99741.75;;;24.92;61.62
41800;BME280;27468;47.460;19.034;2022-08-21T09:15:58;99745.16;;;25.34;60.20
41800;BME280;27468;47.460;19.034;2022-08-21T09:24:01;99741.44;;;25.25;60.20
41800;BME280;27468;47.460;19.034;2022-08-21T09:26:38;99728.94;;;25.24;60.38
41800;BME280;27468;47.460;19.034;2022-08-21T09:29:10;99748.44;;;25.38;60.84
41800;BME280;27468;47.460;19.034;2022-08-21T09:31:37;99737.34;;;25.41;59.38
41800;BME280;27468;47.460;19.034;2022-08-21T09:34:05;99728.38;;;25.50;59.18
41800;BME280;27468;47.460;19.034;2022-08-21T09:36:49;99735.63;;;25.59;60.06
41800;BME280;27468;47.460;19.034;2022-08-21T09:39:45;99738.63;;;25.56;58.61
41800;BME280;27468;47.460;19.034;2022-08-21T09:42:10;99717.19;;;25.35;59.64
41800;BME280;27468;47.460;19.034;2022-08-21T09:44:38;99742.44;;;25.53;58.79
41800;BME280;27468;47.460;19.034;2022-08-21T09:47:07;99721.84;;;25.52;58.78
41800;BME280;27468;47.460;19.034;2022-08-21T09:49:39;99731.13;;;25.69;58.68
41800;BME280;27468;47.460;19.034;2022-08-21T09:52:19;99715.78;;;25.70;58.17
41800;BME280;27468;47.460;19.034;2022-08-21T09:54:50;99732.97;;;25.78;58.38
41800;BME280;27468;47.460;19.034;2022-08-21T09:57:26;99738.81;;;25.74;57.92
41800;BME280;27468;47.460;19.034;2022-08-21T10:00:10;99739.78;;;25.82;58.04
41800;BME280;27468;47.460;19.034;2022-08-21T10:02:40;99723.00;;;25.88;57.77
41800;BME280;27468;47.460;19.034;2022-08-21T10:05:21;99736.31;;;26.09;57.07
41800;BME280;27468;47.460;19.034;2022-08-21T10:07:48;99734.66;;;25.98;57.19
41800;BME280;27468;47.460;19.034;2022-08-21T10:10:20;99721.88;;;25.91;57.28
41800;BME280;27468;47.460;19.034;2022-08-21T10:15:56;99744.91;;;25.95;57.57
41800;BME280;27468;47.460;19.034;2022-08-21T10:26:57;99737.00;;;26.40;55.83
41800;BME280;27468;47.460;19.034;2022-08-21T10:29:42;99718.53;;;26.36;56.42
41800;BME280;27468;47.460;19.034;2022-08-21T10:40:40;99736.31;;;26.65;55.63
41800;BME280;27468;47.460;19.034;2022-08-21T10:43:52;99710.88;;;26.58;55.05
41800;BME280;27468;47.460;19.034;2022-08-21T10:54:53;99721.91;;;26.47;55.59
41800;BME280;27468;47.460;19.034;2022-08-21T10:57:36;99719.91;;;26.49;55.56
41800;BME280;27468;47.460;19.034;2022-08-21T11:00:30;99716.00;;;26.61;55.13
41800;BME280;27468;47.460;19.034;2022-08-21T11:05:33;99719.94;;;26.67;54.98
41800;BME280;27468;47.460;19.034;2022-08-21T11:08:07;99728.22;;;26.93;53.58
41800;BME280;27468;47.460;19.034;2022-08-21T11:10:44;99695.06;;;26.63;54.31
41800;BME280;27468;47.460;19.034;2022-08-21T11:13:24;99699.03;;;26.69;54.15
41800;BME280;27468;47.460;19.034;2022-08-21T11:19:28;99676.34;;;26.52;54.81
41800;BME280;27468;47.460;19.034;2022-08-21T11:24:17;99718.53;;;27.00;53.71
41800;BME280;27468;47.460;19.034;2022-08-21T11:26:50;99714.84;;;27.01;54.40
41800;BME280;27468;47.460;19.034;2022-08-21T11:29:30;99712.59;;;26.87;54.03
41800;BME280;27468;47.460;19.034;2022-08-21T11:43:39;99694.72;;;26.76;54.49
41800;BME280;27468;47.460;19.034;2022-08-21T11:51:45;99694.72;;;26.76;53.59
41800;BME280;27468;47.460;19.034;2022-08-21T11:57:00;99693.13;;;26.83;53.80
41800;BME280;27468;47.460;19.034;2022-08-21T12:02:00;99673.56;;;26.62;54.25
41800;BME280;27468;47.460;19.034;2022-08-21T12:04:31;99690.34;;;26.65;54.31
41800;BME280;27468;47.460;19.034;2022-08-21T12:07:15;99698.88;;;26.43;55.21
41800;BME280;27468;47.460;19.034;2022-08-21T12:09:52;99691.66;;;26.34;55.75
41800;BME280;27468;47.460;19.034;2022-08-21T12:12:31;99698.84;;;26.53;55.87
41800;BME280;27468;47.460;19.034;2022-08-21T12:18:06;99682.53;;;26.25;56.04
41800;BME280;27468;47.460;19.034;2022-08-21T12:20:57;99692.50;;;26.35;56.17
41800;BME280;27468;47.460;19.034;2022-08-21T12:23:30;99697.75;;;26.36;55.56
41800;BME280;27468;47.460;19.034;2022-08-21T12:26:23;99683.09;;;26.29;56.07
41800;BME280;27468;47.460;19.034;2022-08-21T12:28:49;99675.84;;;26.29;55.22
41800;BME280;27468;47.460;19.034;2022-08-21T12:31:21;99681.94;;;26.41;55.88
41800;BME280;27468;47.460;19.034;2022-08-21T12:33:56;99687.50;;;26.40;55.68
41800;BME280;27468;47.460;19.034;2022-08-21T12:36:39;99644.91;;;26.05;55.82
41800;BME280;27468;47.460;19.034;2022-08-21T12:39:14;99679.13;;;26.23;56.42
41800;BME280;27468;47.460;19.034;2022-08-21T12:41:51;99667.66;;;26.02;56.90
41800;BME280;27468;47.460;19.034;2022-08-21T12:44:24;99675.44;;;26.24;56.41
41800;BME280;27468;47.460;19.034;2022-08-21T12:47:12;99638.00;;;25.92;57.03
41800;BME280;27468;47.460;19.034;2022-08-21T12:52:35;99672.75;;;26.15;57.22
41800;BME280;27468;47.460;19.034;2022-08-21T12:55:03;99663.50;;;26.17;57.08
41800;BME280;27468;47.460;19.034;2022-08-21T12:57:29;99677.28;;;26.24;56.33
41800;BME280;27468;47.460;19.034;2022-08-21T12:59:59;99657.19;;;25.99;56.50
41800;BME280;27468;47.460;19.034;2022-08-21T13:02:30;99674.47;;;26.06;56.63
41800;BME280;27468;47.460;19.034;2022-08-21T13:04:57;99672.38;;;26.00;56.91
41800;BME280;27468;47.460;19.034;2022-08-21T13:07:32;99650.09;;;25.88;57.53
41800;BME280;27468;47.460;19.034;2022-08-21T13:10:03;99636.47;;;25.71;57.41
41800;BME280;27468;47.460;19.034;2022-08-21T13:12:30;99651.41;;;25.75;58.30
41800;BME280;27468;47.460;19.034;2022-08-21T13:14:59;99657.38;;;25.78;58.38
41800;BME280;27468;47.460;19.034;2022-08-21T13:17:26;99640.59;;;25.46;60.27
41800;BME280;27468;47.460;19.034;2022-08-21T13:19:54;99662.91;;;25.28;65.62
41800;BME280;27468;47.460;19.034;2022-08-21T13:22:20;99663.88;;;25.08;65.65
41800;BME280;27468;47.460;19.034;2022-08-21T13:24:47;99664.53;;;24.91;67.93
41800;BME280;27468;47.460;19.034;2022-08-21T13:27:30;99660.41;;;24.77;68.66
41800;BME280;27468;47.460;19.034;2022-08-21T13:30:06;99671.47;;;24.74;68.63
41800;BME280;27468;47.460;19.034;2022-08-21T13:35:08;99668.41;;;24.48;69.77
41800;BME280;27468;47.460;19.034;2022-08-21T13:37:35;99665.13;;;24.45;72.75
41800;BME280;27468;47.460;19.034;2022-08-21T13:40:07;99669.25;;;24.49;73.95
41800;BME280;27468;47.460;19.034;2022-08-21T13:42:34;99673.38;;;24.53;74.87
41800;BME280;27468;47.460;19.034;2022-08-21T13:45:00;99661.13;;;24.39;75.63
41800;BME280;27468;47.460;19.034;2022-08-21T13:47:25;99686.72;;;24.54;76.78
41800;BME280;27468;47.460;19.034;2022-08-21T13:49:52;99685.16;;;24.52;77.71
41800;BME280;27468;47.460;19.034;2022-08-21T13:54:52;99648.00;;;24.25;78.37
41800;BME280;27468;47.460;19.034;2022-08-21T13:57:30;99673.84;;;24.27;77.57
41800;BME280;27468;47.460;19.034;2022-08-21T14:00:19;99676.22;;;24.21;77.06
41800;BME280;27468;47.460;19.034;2022-08-21T14:02:47;99662.81;;;24.10;76.45
41800;BME280;27468;47.460;19.034;2022-08-21T14:05:42;99637.88;;;23.87;76.16
41800;BME280;27468;47.460;19.034;2022-08-21T14:08:20;99673.81;;;23.97;77.81
41800;BME280;27468;47.460;19.034;2022-08-21T14:10:50;99671.56;;;23.81;79.79
41800;BME280;27468;47.460;19.034;2022-08-21T14:13:33;99666.81;;;23.64;80.78
41800;BME280;27468;47.460;19.034;2022-08-21T14:16:01;99688.19;;;23.65;81.30
41800;BME280;27468;47.460;19.034;2022-08-21T14:18:28;99686.41;;;23.55;83.50
41800;BME280;27468;47.460;19.034;2022-08-21T14:21:06;99688.13;;;23.45;85.55
41800;BME280;27468;47.460;19.034;2022-08-21T14:23:32;99690.63;;;23.36;85.63
41800;BME280;27468;47.460;19.034;2022-08-21T14:26:03;99663.66;;;23.16;87.17
41800;BME280;27468;47.460;19.034;2022-08-21T14:28:32;99678.81;;;23.17;87.65